航空気象通報

ウインドサーファーのための航空気象通報による風予報です。

10/29-10/31の航空気象通報

2016年10月29日 23時00分24秒 | TAF
羽田空港
TAF RJTT 291108Z 2912/3018 03016KT 9999 FEW030 BKN050
日本時間29日21時-31日03時:030度から16ノットの風


静岡空港
TAF RJNS 291107Z 2912/3018 05008KT 9999 FEW015 BKN040
BECMG 3009/3012 35006KT
日本時間29日21時-30日18時:050度から8ノットの風
18-21時:風が変化
21時-31日03時:350度から6ノットの風


福岡空港
TAF RJFF 291106Z 2912/3018 13005KT 9999 FEW030
BECMG 3000/3003 35010KT
BECMG 3009/3012 14005KT
日本時間29日21時-30日09時:130度から5ノットの風
09-12時:風が変化
12-18時:350度から10ノットの風
18-21時:風が変化
21時-31日03時:140度から5ノットの風


那覇空港
TAF ROAH 291105Z 2912/3018 02018KT 9999 FEW025 BKN040
日本時間29日21時-31日03時:020度から18ノットの風


石垣空港
TAF ROIG 291106Z 2912/3018 04020KT 9999 FEW020 BKN030
日本時間29日21時-31日03時:040度から20ノットの風


マウイのカフルイ空港
PHOG 291139Z 2912/3012 06010KT P6SM FEW030 SCT060
FM291800 06014G21KT P6SM FEW030 SCT060
FM292300 05020G28KT P6SM SCT030 BKN060
FM300400 06014G21KT P6SM FEW030 SCT060
ハワイ時間29日02-08時:060度から10ノットの風
08-13時:060度から14ノット、突風21ノット

13-18時:050度から20ノット、突風28ノット

18時-30日02時:060度から14ノット、突風21ノット


サイパン空港
TAF PGSN 291120Z 2912/3012 08009KT P6SM VCSH FEW020 SCT060
FM291600 07012KT P6SM VCSH FEW016 SCT050 BKN120
TEMPO 2916/2920 5SM SHRA SCT014 BKN025
FM300100 06011G18KT P6SM VCSH FEW016 SCT040 BKN120
マリアナ時間29日22時-30日02時:080度から9ノットの風

02-11時:070度から16ノットの風
11-22時:060度から11ノット、突風18ノット
ジャンル:
お天気
コメント   この記事についてブログを書く
この記事をはてなブックマークに追加
« 10/28-10/30の航空気象通報 | トップ | 10/30-11/1の航空気象通報 »
最近の画像もっと見る

コメントを投稿

ブログ作成者から承認されるまでコメントは反映されません。

TAF」カテゴリの最新記事

トラックバック

この記事のトラックバック  Ping-URL
ブログ作成者から承認されるまでトラックバックは反映されません。
  • 30日以上前の記事に対するトラックバックは受け取らないよう設定されております。
  • 送信元の記事内容が半角英数のみのトラックバックは受け取らないよう設定されております。
  • このブログへのリンクがない記事からのトラックバックは受け取らないよう設定されております。
  • ※ブログ管理者のみ、編集画面で設定の変更が可能です。